sensor_id;sensor_type;location;lat;lon;timestamp;P1;durP1;ratioP1;P2;durP2;ratioP2
9445;SDS011;4761;49.490;10.908;2023-02-01T00:02:03;0.83;;;0.80;;
9445;SDS011;4761;49.490;10.908;2023-02-01T00:04:29;1.00;;;0.90;;
9445;SDS011;4761;49.490;10.908;2023-02-01T00:06:55;0.70;;;0.70;;
9445;SDS011;4761;49.490;10.908;2023-02-01T00:09:21;1.23;;;0.90;;
9445;SDS011;4761;49.490;10.908;2023-02-01T00:11:46;0.80;;;0.80;;
9445;SDS011;4761;49.490;10.908;2023-02-01T00:14:12;1.10;;;0.80;;
9445;SDS011;4761;49.490;10.908;2023-02-01T00:16:38;0.90;;;0.90;;
9445;SDS011;4761;49.490;10.908;2023-02-01T00:21:31;0.77;;;0.77;;
9445;SDS011;4761;49.490;10.908;2023-02-01T00:23:57;0.80;;;0.80;;
9445;SDS011;4761;49.490;10.908;2023-02-01T00:28:59;1.30;;;0.83;;
9445;SDS011;4761;49.490;10.908;2023-02-01T00:31:26;0.93;;;0.90;;
9445;SDS011;4761;49.490;10.908;2023-02-01T00:33:51;1.20;;;0.93;;
9445;SDS011;4761;49.490;10.908;2023-02-01T00:36:17;1.43;;;0.97;;
9445;SDS011;4761;49.490;10.908;2023-02-01T00:38:42;1.10;;;0.90;;
9445;SDS011;4761;49.490;10.908;2023-02-01T00:43:40;1.10;;;1.00;;
9445;SDS011;4761;49.490;10.908;2023-02-01T00:46:06;1.00;;;0.90;;
9445;SDS011;4761;49.490;10.908;2023-02-01T00:48:32;1.00;;;0.90;;
9445;SDS011;4761;49.490;10.908;2023-02-01T00:51:02;1.10;;;1.00;;
9445;SDS011;4761;49.490;10.908;2023-02-01T00:53:29;1.07;;;1.00;;
9445;SDS011;4761;49.490;10.908;2023-02-01T00:55:55;1.50;;;0.90;;
9445;SDS011;4761;49.490;10.908;2023-02-01T00:58:21;0.77;;;0.70;;
9445;SDS011;4761;49.490;10.908;2023-02-01T01:00:49;0.80;;;0.80;;
9445;SDS011;4761;49.490;10.908;2023-02-01T01:03:14;0.80;;;0.80;;
9445;SDS011;4761;49.490;10.908;2023-02-01T01:05:46;1.20;;;0.90;;
9445;SDS011;4761;49.490;10.908;2023-02-01T01:08:13;1.17;;;1.03;;
9445;SDS011;4761;49.490;10.908;2023-02-01T01:10:42;2.10;;;1.00;;
9445;SDS011;4761;49.490;10.908;2023-02-01T01:13:08;1.20;;;0.90;;
9445;SDS011;4761;49.490;10.908;2023-02-01T01:15:37;1.10;;;0.90;;
9445;SDS011;4761;49.490;10.908;2023-02-01T01:18:04;0.87;;;0.73;;
9445;SDS011;4761;49.490;10.908;2023-02-01T01:20:30;0.70;;;0.70;;
9445;SDS011;4761;49.490;10.908;2023-02-01T01:22:58;0.77;;;0.77;;
9445;SDS011;4761;49.490;10.908;2023-02-01T01:25:23;0.73;;;0.73;;
9445;SDS011;4761;49.490;10.908;2023-02-01T01:27:49;1.57;;;0.90;;
9445;SDS011;4761;49.490;10.908;2023-02-01T01:30:15;1.03;;;0.90;;
9445;SDS011;4761;49.490;10.908;2023-02-01T01:32:41;0.93;;;0.90;;
9445;SDS011;4761;49.490;10.908;2023-02-01T01:35:06;0.83;;;0.80;;
9445;SDS011;4761;49.490;10.908;2023-02-01T01:37:32;0.83;;;0.80;;
9445;SDS011;4761;49.490;10.908;2023-02-01T01:39:58;1.23;;;0.93;;
9445;SDS011;4761;49.490;10.908;2023-02-01T01:42:23;0.90;;;0.80;;
9445;SDS011;4761;49.490;10.908;2023-02-01T01:47:32;0.80;;;0.80;;
9445;SDS011;4761;49.490;10.908;2023-02-01T01:50:02;0.80;;;0.80;;
9445;SDS011;4761;49.490;10.908;2023-02-01T01:52:28;0.97;;;0.90;;
9445;SDS011;4761;49.490;10.908;2023-02-01T01:54:54;0.80;;;0.80;;
9445;SDS011;4761;49.490;10.908;2023-02-01T01:57:24;0.93;;;0.80;;
9445;SDS011;4761;49.490;10.908;2023-02-01T02:00:03;0.80;;;0.80;;
9445;SDS011;4761;49.490;10.908;2023-02-01T02:02:40;1.30;;;0.80;;
9445;SDS011;4761;49.490;10.908;2023-02-01T02:05:08;0.70;;;0.70;;
9445;SDS011;4761;49.490;10.908;2023-02-01T02:07:36;0.70;;;0.70;;
9445;SDS011;4761;49.490;10.908;2023-02-01T02:10:05;0.83;;;0.80;;
9445;SDS011;4761;49.490;10.908;2023-02-01T02:12:35;1.07;;;0.80;;
9445;SDS011;4761;49.490;10.908;2023-02-01T02:15:05;0.80;;;0.80;;
9445;SDS011;4761;49.490;10.908;2023-02-01T02:17:48;0.60;;;0.60;;
9445;SDS011;4761;49.490;10.908;2023-02-01T02:42:34;0.90;;;0.77;;
9445;SDS011;4761;49.490;10.908;2023-02-01T02:45:50;0.80;;;0.80;;
9445;SDS011;4761;49.490;10.908;2023-02-01T02:52:12;0.70;;;0.70;;
9445;SDS011;4761;49.490;10.908;2023-02-01T02:55:03;1.53;;;1.00;;
9445;SDS011;4761;49.490;10.908;2023-02-01T02:57:39;1.33;;;0.90;;
9445;SDS011;4761;49.490;10.908;2023-02-01T03:00:31;0.63;;;0.63;;
9445;SDS011;4761;49.490;10.908;2023-02-01T03:03:17;1.00;;;0.77;;
9445;SDS011;4761;49.490;10.908;2023-02-01T03:06:02;1.00;;;0.80;;
9445;SDS011;4761;49.490;10.908;2023-02-01T03:08:30;1.03;;;0.80;;
9445;SDS011;4761;49.490;10.908;2023-02-01T03:11:03;0.57;;;0.57;;
9445;SDS011;4761;49.490;10.908;2023-02-01T03:16:15;0.80;;;0.80;;
9445;SDS011;4761;49.490;10.908;2023-02-01T03:18:57;0.77;;;0.77;;
9445;SDS011;4761;49.490;10.908;2023-02-01T03:21:32;0.70;;;0.70;;
9445;SDS011;4761;49.490;10.908;2023-02-01T03:24:04;0.60;;;0.60;;
9445;SDS011;4761;49.490;10.908;2023-02-01T03:26:36;1.23;;;0.90;;
9445;SDS011;4761;49.490;10.908;2023-02-01T03:29:09;0.80;;;0.80;;
9445;SDS011;4761;49.490;10.908;2023-02-01T03:31:39;1.07;;;0.90;;
9445;SDS011;4761;49.490;10.908;2023-02-01T03:34:05;0.87;;;0.80;;
9445;SDS011;4761;49.490;10.908;2023-02-01T03:36:35;1.00;;;0.90;;
9445;SDS011;4761;49.490;10.908;2023-02-01T03:41:48;0.93;;;0.87;;
9445;SDS011;4761;49.490;10.908;2023-02-01T03:44:29;0.80;;;0.80;;
9445;SDS011;4761;49.490;10.908;2023-02-01T03:47:06;1.53;;;1.00;;
9445;SDS011;4761;49.490;10.908;2023-02-01T03:52:14;0.90;;;0.80;;
9445;SDS011;4761;49.490;10.908;2023-02-01T03:54:42;0.83;;;0.73;;
9445;SDS011;4761;49.490;10.908;2023-02-01T03:57:11;1.53;;;1.00;;
9445;SDS011;4761;49.490;10.908;2023-02-01T03:59:41;1.10;;;1.00;;
9445;SDS011;4761;49.490;10.908;2023-02-01T04:02:09;1.20;;;0.90;;
9445;SDS011;4761;49.490;10.908;2023-02-01T04:04:35;0.83;;;0.80;;
9445;SDS011;4761;49.490;10.908;2023-02-01T04:07:01;0.80;;;0.80;;
9445;SDS011;4761;49.490;10.908;2023-02-01T04:09:27;0.73;;;0.70;;
9445;SDS011;4761;49.490;10.908;2023-02-01T04:11:52;1.03;;;0.93;;
9445;SDS011;4761;49.490;10.908;2023-02-01T04:14:18;0.97;;;0.90;;
9445;SDS011;4761;49.490;10.908;2023-02-01T04:16:43;1.40;;;0.90;;
9445;SDS011;4761;49.490;10.908;2023-02-01T04:19:09;1.57;;;1.00;;
9445;SDS011;4761;49.490;10.908;2023-02-01T04:21:35;1.00;;;0.90;;
9445;SDS011;4761;49.490;10.908;2023-02-01T04:24:00;1.00;;;0.90;;
9445;SDS011;4761;49.490;10.908;2023-02-01T04:26:26;0.80;;;0.80;;
9445;SDS011;4761;49.490;10.908;2023-02-01T04:28:51;1.57;;;1.07;;
9445;SDS011;4761;49.490;10.908;2023-02-01T04:31:17;0.80;;;0.73;;
9445;SDS011;4761;49.490;10.908;2023-02-01T04:33:50;1.63;;;0.83;;
9445;SDS011;4761;49.490;10.908;2023-02-01T04:36:17;0.83;;;0.80;;
9445;SDS011;4761;49.490;10.908;2023-02-01T04:38:45;1.43;;;1.00;;
9445;SDS011;4761;49.490;10.908;2023-02-01T04:41:11;1.27;;;0.90;;
9445;SDS011;4761;49.490;10.908;2023-02-01T04:43:36;0.87;;;0.80;;
9445;SDS011;4761;49.490;10.908;2023-02-01T04:46:02;0.70;;;0.70;;
9445;SDS011;4761;49.490;10.908;2023-02-01T04:48:27;0.80;;;0.80;;
9445;SDS011;4761;49.490;10.908;2023-02-01T04:50:53;1.13;;;0.93;;
9445;SDS011;4761;49.490;10.908;2023-02-01T04:53:18;0.90;;;0.90;;
9445;SDS011;4761;49.490;10.908;2023-02-01T04:55:44;1.53;;;1.23;;
9445;SDS011;4761;49.490;10.908;2023-02-01T04:58:10;0.80;;;0.80;;
9445;SDS011;4761;49.490;10.908;2023-02-01T05:00:36;1.07;;;0.90;;
9445;SDS011;4761;49.490;10.908;2023-02-01T05:03:02;3.90;;;0.90;;
9445;SDS011;4761;49.490;10.908;2023-02-01T05:05:28;1.10;;;0.73;;
9445;SDS011;4761;49.490;10.908;2023-02-01T05:07:54;0.87;;;0.83;;
9445;SDS011;4761;49.490;10.908;2023-02-01T05:10:19;1.27;;;1.00;;
9445;SDS011;4761;49.490;10.908;2023-02-01T05:12:46;1.10;;;1.00;;
9445;SDS011;4761;49.490;10.908;2023-02-01T05:15:30;0.90;;;0.90;;
9445;SDS011;4761;49.490;10.908;2023-02-01T05:17:56;1.03;;;0.77;;
9445;SDS011;4761;49.490;10.908;2023-02-01T05:20:22;0.87;;;0.87;;
9445;SDS011;4761;49.490;10.908;2023-02-01T05:22:48;0.63;;;0.63;;
9445;SDS011;4761;49.490;10.908;2023-02-01T05:25:13;0.83;;;0.83;;
9445;SDS011;4761;49.490;10.908;2023-02-01T05:27:39;1.17;;;1.00;;
9445;SDS011;4761;49.490;10.908;2023-02-01T05:30:04;1.10;;;1.00;;
9445;SDS011;4761;49.490;10.908;2023-02-01T05:32:31;0.90;;;0.90;;
9445;SDS011;4761;49.490;10.908;2023-02-01T05:34:56;0.90;;;0.90;;
9445;SDS011;4761;49.490;10.908;2023-02-01T05:37:22;1.17;;;0.90;;
9445;SDS011;4761;49.490;10.908;2023-02-01T05:39:48;0.70;;;0.70;;
9445;SDS011;4761;49.490;10.908;2023-02-01T05:42:13;0.90;;;0.77;;
9445;SDS011;4761;49.490;10.908;2023-02-01T05:44:39;0.80;;;0.80;;
9445;SDS011;4761;49.490;10.908;2023-02-01T05:47:04;0.87;;;0.87;;
9445;SDS011;4761;49.490;10.908;2023-02-01T05:49:30;1.00;;;0.80;;
9445;SDS011;4761;49.490;10.908;2023-02-01T05:51:55;1.00;;;0.80;;
9445;SDS011;4761;49.490;10.908;2023-02-01T05:54:21;1.23;;;0.73;;
9445;SDS011;4761;49.490;10.908;2023-02-01T05:56:47;1.43;;;0.90;;
9445;SDS011;4761;49.490;10.908;2023-02-01T05:59:12;0.80;;;0.80;;
9445;SDS011;4761;49.490;10.908;2023-02-01T06:01:38;0.80;;;0.80;;
9445;SDS011;4761;49.490;10.908;2023-02-01T06:04:03;0.80;;;0.80;;
9445;SDS011;4761;49.490;10.908;2023-02-01T06:06:29;1.13;;;0.90;;
9445;SDS011;4761;49.490;10.908;2023-02-01T06:08:54;1.00;;;0.70;;
9445;SDS011;4761;49.490;10.908;2023-02-01T06:11:20;1.23;;;0.70;;
9445;SDS011;4761;49.490;10.908;2023-02-01T06:13:45;0.60;;;0.60;;
9445;SDS011;4761;49.490;10.908;2023-02-01T06:16:11;1.07;;;0.70;;
9445;SDS011;4761;49.490;10.908;2023-02-01T06:18:36;0.57;;;0.50;;
9445;SDS011;4761;49.490;10.908;2023-02-01T06:21:02;0.70;;;0.70;;
9445;SDS011;4761;49.490;10.908;2023-02-01T06:23:28;0.90;;;0.90;;
9445;SDS011;4761;49.490;10.908;2023-02-01T06:25:58;1.20;;;1.10;;
9445;SDS011;4761;49.490;10.908;2023-02-01T06:28:28;0.90;;;0.90;;
9445;SDS011;4761;49.490;10.908;2023-02-01T06:30:55;1.30;;;1.03;;
9445;SDS011;4761;49.490;10.908;2023-02-01T06:33:22;0.90;;;0.80;;
9445;SDS011;4761;49.490;10.908;2023-02-01T06:35:57;1.10;;;0.97;;
9445;SDS011;4761;49.490;10.908;2023-02-01T06:38:24;0.80;;;0.80;;
9445;SDS011;4761;49.490;10.908;2023-02-01T06:40:54;0.60;;;0.60;;
9445;SDS011;4761;49.490;10.908;2023-02-01T06:43:24;0.87;;;0.73;;
9445;SDS011;4761;49.490;10.908;2023-02-01T06:45:51;0.80;;;0.80;;
9445;SDS011;4761;49.490;10.908;2023-02-01T06:48:17;0.70;;;0.70;;
9445;SDS011;4761;49.490;10.908;2023-02-01T06:50:43;0.80;;;0.80;;
9445;SDS011;4761;49.490;10.908;2023-02-01T06:53:09;0.80;;;0.80;;
9445;SDS011;4761;49.490;10.908;2023-02-01T06:55:34;0.70;;;0.70;;
9445;SDS011;4761;49.490;10.908;2023-02-01T06:58:00;1.97;;;0.90;;
9445;SDS011;4761;49.490;10.908;2023-02-01T07:00:27;0.77;;;0.77;;
9445;SDS011;4761;49.490;10.908;2023-02-01T07:02:53;0.90;;;0.90;;
9445;SDS011;4761;49.490;10.908;2023-02-01T07:05:19;1.00;;;0.90;;
9445;SDS011;4761;49.490;10.908;2023-02-01T07:07:44;0.87;;;0.80;;
9445;SDS011;4761;49.490;10.908;2023-02-01T07:10:10;1.23;;;0.90;;
9445;SDS011;4761;49.490;10.908;2023-02-01T07:12:36;1.00;;;0.90;;
9445;SDS011;4761;49.490;10.908;2023-02-01T07:15:02;1.10;;;1.00;;
9445;SDS011;4761;49.490;10.908;2023-02-01T07:17:28;1.63;;;1.30;;
9445;SDS011;4761;49.490;10.908;2023-02-01T07:19:54;1.33;;;1.13;;
9445;SDS011;4761;49.490;10.908;2023-02-01T07:22:20;1.03;;;0.90;;
9445;SDS011;4761;49.490;10.908;2023-02-01T07:24:46;0.80;;;0.80;;
9445;SDS011;4761;49.490;10.908;2023-02-01T07:27:12;1.07;;;1.00;;
9445;SDS011;4761;49.490;10.908;2023-02-01T07:29:38;1.07;;;0.90;;
9445;SDS011;4761;49.490;10.908;2023-02-01T07:32:03;1.07;;;1.00;;
9445;SDS011;4761;49.490;10.908;2023-02-01T07:34:29;1.53;;;1.10;;
9445;SDS011;4761;49.490;10.908;2023-02-01T07:36:55;1.40;;;1.30;;
9445;SDS011;4761;49.490;10.908;2023-02-01T07:39:21;1.30;;;1.20;;
9445;SDS011;4761;49.490;10.908;2023-02-01T07:41:47;1.10;;;1.00;;
9445;SDS011;4761;49.490;10.908;2023-02-01T07:44:13;1.57;;;1.17;;
9445;SDS011;4761;49.490;10.908;2023-02-01T07:46:39;1.30;;;1.20;;
9445;SDS011;4761;49.490;10.908;2023-02-01T07:49:04;1.10;;;1.00;;
9445;SDS011;4761;49.490;10.908;2023-02-01T07:51:30;1.30;;;1.10;;
9445;SDS011;4761;49.490;10.908;2023-02-01T07:53:56;1.63;;;1.20;;
9445;SDS011;4761;49.490;10.908;2023-02-01T07:56:22;1.47;;;1.10;;
9445;SDS011;4761;49.490;10.908;2023-02-01T07:58:48;1.40;;;1.10;;
9445;SDS011;4761;49.490;10.908;2023-02-01T08:01:18;1.10;;;1.00;;
9445;SDS011;4761;49.490;10.908;2023-02-01T08:03:50;1.40;;;1.10;;
9445;SDS011;4761;49.490;10.908;2023-02-01T08:06:19;1.40;;;1.20;;
9445;SDS011;4761;49.490;10.908;2023-02-01T08:08:46;1.30;;;1.10;;
9445;SDS011;4761;49.490;10.908;2023-02-01T08:11:13;1.10;;;0.90;;
9445;SDS011;4761;49.490;10.908;2023-02-01T08:13:39;2.30;;;1.17;;
9445;SDS011;4761;49.490;10.908;2023-02-01T08:16:06;1.53;;;1.07;;
9445;SDS011;4761;49.490;10.908;2023-02-01T08:18:34;1.40;;;1.30;;
9445;SDS011;4761;49.490;10.908;2023-02-01T08:21:04;1.10;;;1.00;;
9445;SDS011;4761;49.490;10.908;2023-02-01T08:23:32;1.77;;;1.00;;
9445;SDS011;4761;49.490;10.908;2023-02-01T08:26:12;1.10;;;1.00;;
9445;SDS011;4761;49.490;10.908;2023-02-01T08:28:44;1.67;;;1.30;;
9445;SDS011;4761;49.490;10.908;2023-02-01T08:31:12;1.20;;;1.10;;
9445;SDS011;4761;49.490;10.908;2023-02-01T08:33:40;1.90;;;1.20;;
9445;SDS011;4761;49.490;10.908;2023-02-01T08:36:07;1.43;;;1.10;;
9445;SDS011;4761;49.490;10.908;2023-02-01T08:38:37;1.63;;;1.13;;
9445;SDS011;4761;49.490;10.908;2023-02-01T08:41:08;2.07;;;1.10;;
9445;SDS011;4761;49.490;10.908;2023-02-01T08:43:38;1.30;;;1.03;;
9445;SDS011;4761;49.490;10.908;2023-02-01T08:46:04;0.93;;;0.87;;
9445;SDS011;4761;49.490;10.908;2023-02-01T08:48:31;1.10;;;1.00;;
9445;SDS011;4761;49.490;10.908;2023-02-01T08:50:57;1.57;;;1.00;;
9445;SDS011;4761;49.490;10.908;2023-02-01T08:53:25;1.33;;;1.20;;
9445;SDS011;4761;49.490;10.908;2023-02-01T08:55:51;2.00;;;1.33;;
9445;SDS011;4761;49.490;10.908;2023-02-01T08:58:17;2.10;;;1.23;;
9445;SDS011;4761;49.490;10.908;2023-02-01T09:00:43;1.20;;;0.70;;
9445;SDS011;4761;49.490;10.908;2023-02-01T09:03:13;0.50;;;0.50;;
9445;SDS011;4761;49.490;10.908;2023-02-01T09:05:38;0.60;;;0.50;;
9445;SDS011;4761;49.490;10.908;2023-02-01T09:08:04;0.90;;;0.70;;
9445;SDS011;4761;49.490;10.908;2023-02-01T09:10:30;0.97;;;0.63;;
9445;SDS011;4761;49.490;10.908;2023-02-01T09:12:55;1.27;;;0.67;;
9445;SDS011;4761;49.490;10.908;2023-02-01T09:15:21;0.93;;;0.70;;
9445;SDS011;4761;49.490;10.908;2023-02-01T09:17:46;0.50;;;0.50;;
9445;SDS011;4761;49.490;10.908;2023-02-01T09:20:12;0.70;;;0.60;;
9445;SDS011;4761;49.490;10.908;2023-02-01T09:22:37;1.07;;;0.60;;
9445;SDS011;4761;49.490;10.908;2023-02-01T09:25:04;1.00;;;0.80;;
9445;SDS011;4761;49.490;10.908;2023-02-01T09:27:30;0.77;;;0.60;;
9445;SDS011;4761;49.490;10.908;2023-02-01T09:29:56;0.93;;;0.60;;
9445;SDS011;4761;49.490;10.908;2023-02-01T09:32:22;13.07;;;1.93;;
9445;SDS011;4761;49.490;10.908;2023-02-01T09:34:51;12.40;;;1.10;;
9445;SDS011;4761;49.490;10.908;2023-02-01T09:37:17;5.60;;;1.30;;
9445;SDS011;4761;49.490;10.908;2023-02-01T09:39:43;5.17;;;1.37;;
9445;SDS011;4761;49.490;10.908;2023-02-01T09:42:21;8.50;;;1.30;;
9445;SDS011;4761;49.490;10.908;2023-02-01T09:47:34;6.10;;;1.37;;
9445;SDS011;4761;49.490;10.908;2023-02-01T09:50:02;4.40;;;1.10;;
9445;SDS011;4761;49.490;10.908;2023-02-01T09:52:34;4.60;;;1.50;;
9445;SDS011;4761;49.490;10.908;2023-02-01T09:55:16;5.50;;;1.47;;
9445;SDS011;4761;49.490;10.908;2023-02-01T09:57:56;5.57;;;1.73;;
9445;SDS011;4761;49.490;10.908;2023-02-01T10:00:27;7.93;;;1.57;;
9445;SDS011;4761;49.490;10.908;2023-02-01T10:02:55;4.37;;;1.57;;
9445;SDS011;4761;49.490;10.908;2023-02-01T10:05:30;3.83;;;1.57;;
9445;SDS011;4761;49.490;10.908;2023-02-01T10:08:19;3.47;;;1.43;;
9445;SDS011;4761;49.490;10.908;2023-02-01T10:11:27;7.13;;;1.70;;
9445;SDS011;4761;49.490;10.908;2023-02-01T10:14:09;4.27;;;1.80;;
9445;SDS011;4761;49.490;10.908;2023-02-01T10:16:51;5.60;;;1.80;;
9445;SDS011;4761;49.490;10.908;2023-02-01T10:24:39;4.10;;;1.80;;
9445;SDS011;4761;49.490;10.908;2023-02-01T10:27:11;5.20;;;1.57;;
9445;SDS011;4761;49.490;10.908;2023-02-01T10:29:39;3.30;;;1.40;;
9445;SDS011;4761;49.490;10.908;2023-02-01T10:32:10;5.07;;;1.83;;
9445;SDS011;4761;49.490;10.908;2023-02-01T10:34:52;4.27;;;1.70;;
9445;SDS011;4761;49.490;10.908;2023-02-01T10:37:25;4.17;;;1.50;;
9445;SDS011;4761;49.490;10.908;2023-02-01T10:39:53;4.43;;;1.60;;
9445;SDS011;4761;49.490;10.908;2023-02-01T10:42:22;3.90;;;1.60;;
9445;SDS011;4761;49.490;10.908;2023-02-01T10:44:53;2.70;;;1.30;;
9445;SDS011;4761;49.490;10.908;2023-02-01T10:47:20;3.93;;;1.60;;
9445;SDS011;4761;49.490;10.908;2023-02-01T10:49:58;3.73;;;1.70;;
9445;SDS011;4761;49.490;10.908;2023-02-01T10:53:28;3.03;;;1.13;;
9445;SDS011;4761;49.490;10.908;2023-02-01T11:01:16;1.40;;;1.00;;
9445;SDS011;4761;49.490;10.908;2023-02-01T11:03:54;2.27;;;0.97;;
9445;SDS011;4761;49.490;10.908;2023-02-01T11:08:54;2.47;;;1.23;;
9445;SDS011;4761;49.490;10.908;2023-02-01T11:11:24;2.73;;;1.13;;
9445;SDS011;4761;49.490;10.908;2023-02-01T11:13:53;2.60;;;1.23;;
9445;SDS011;4761;49.490;10.908;2023-02-01T11:16:29;1.70;;;1.07;;
9445;SDS011;4761;49.490;10.908;2023-02-01T11:18:57;3.77;;;1.30;;
9445;SDS011;4761;49.490;10.908;2023-02-01T11:21:23;1.67;;;1.03;;
9445;SDS011;4761;49.490;10.908;2023-02-01T11:23:49;2.33;;;1.10;;
9445;SDS011;4761;49.490;10.908;2023-02-01T11:26:19;4.43;;;2.00;;
9445;SDS011;4761;49.490;10.908;2023-02-01T11:28:53;3.23;;;1.90;;
9445;SDS011;4761;49.490;10.908;2023-02-01T11:31:22;3.97;;;1.83;;
9445;SDS011;4761;49.490;10.908;2023-02-01T11:33:50;2.87;;;1.73;;
9445;SDS011;4761;49.490;10.908;2023-02-01T11:36:21;3.03;;;1.53;;
9445;SDS011;4761;49.490;10.908;2023-02-01T11:38:52;3.50;;;2.03;;
9445;SDS011;4761;49.490;10.908;2023-02-01T11:44:26;2.90;;;1.80;;
9445;SDS011;4761;49.490;10.908;2023-02-01T11:58:05;3.30;;;1.80;;
9445;SDS011;4761;49.490;10.908;2023-02-01T12:00:55;2.87;;;1.80;;
9445;SDS011;4761;49.490;10.908;2023-02-01T12:06:08;5.33;;;2.43;;
9445;SDS011;4761;49.490;10.908;2023-02-01T12:08:49;4.73;;;2.17;;
9445;SDS011;4761;49.490;10.908;2023-02-01T12:28:32;15.33;;;3.63;;
9445;SDS011;4761;49.490;10.908;2023-02-01T12:31:20;14.50;;;3.47;;
9445;SDS011;4761;49.490;10.908;2023-02-01T12:39:32;11.87;;;3.27;;
9445;SDS011;4761;49.490;10.908;2023-02-01T12:42:18;9.30;;;2.67;;
9445;SDS011;4761;49.490;10.908;2023-02-01T12:45:32;9.07;;;3.00;;
9445;SDS011;4761;49.490;10.908;2023-02-01T12:47:40;13.43;;;3.20;;
9445;SDS011;4761;49.490;10.908;2023-02-01T12:50:20;7.60;;;2.93;;
9445;SDS011;4761;49.490;10.908;2023-02-01T12:52:53;8.43;;;2.50;;
9445;SDS011;4761;49.490;10.908;2023-02-01T12:55:23;9.87;;;2.77;;
9445;SDS011;4761;49.490;10.908;2023-02-01T12:58:17;6.70;;;2.10;;
9445;SDS011;4761;49.490;10.908;2023-02-01T13:00:54;10.27;;;2.40;;
9445;SDS011;4761;49.490;10.908;2023-02-01T13:03:39;6.50;;;2.20;;
9445;SDS011;4761;49.490;10.908;2023-02-01T13:06:13;6.60;;;2.30;;
9445;SDS011;4761;49.490;10.908;2023-02-01T13:11:34;7.87;;;2.30;;
9445;SDS011;4761;49.490;10.908;2023-02-01T13:14:04;9.93;;;2.00;;
9445;SDS011;4761;49.490;10.908;2023-02-01T13:16:35;5.13;;;2.00;;
9445;SDS011;4761;49.490;10.908;2023-02-01T13:21:50;4.60;;;1.90;;
9445;SDS011;4761;49.490;10.908;2023-02-01T13:24:35;5.37;;;2.03;;
9445;SDS011;4761;49.490;10.908;2023-02-01T13:27:13;4.90;;;1.60;;
9445;SDS011;4761;49.490;10.908;2023-02-01T13:30:23;3.73;;;1.60;;
9445;SDS011;4761;49.490;10.908;2023-02-01T13:38:10;3.77;;;1.40;;
9445;SDS011;4761;49.490;10.908;2023-02-01T13:43:11;4.47;;;1.90;;
9445;SDS011;4761;49.490;10.908;2023-02-01T13:45:47;3.73;;;1.70;;
9445;SDS011;4761;49.490;10.908;2023-02-01T13:48:19;4.17;;;1.67;;
9445;SDS011;4761;49.490;10.908;2023-02-01T13:50:53;3.07;;;1.50;;
9445;SDS011;4761;49.490;10.908;2023-02-01T13:53:34;3.97;;;1.60;;
9445;SDS011;4761;49.490;10.908;2023-02-01T13:56:03;4.33;;;1.97;;
9445;SDS011;4761;49.490;10.908;2023-02-01T13:58:39;3.23;;;1.60;;
9445;SDS011;4761;49.490;10.908;2023-02-01T14:03:53;2.43;;;1.10;;
9445;SDS011;4761;49.490;10.908;2023-02-01T14:09:14;2.00;;;1.13;;
9445;SDS011;4761;49.490;10.908;2023-02-01T14:11:43;1.90;;;1.07;;
9445;SDS011;4761;49.490;10.908;2023-02-01T14:19:18;3.47;;;1.23;;
9445;SDS011;4761;49.490;10.908;2023-02-01T14:21:47;2.17;;;1.10;;
9445;SDS011;4761;49.490;10.908;2023-02-01T14:24:25;2.17;;;0.97;;
9445;SDS011;4761;49.490;10.908;2023-02-01T14:27:01;2.23;;;1.00;;
9445;SDS011;4761;49.490;10.908;2023-02-01T14:29:38;2.53;;;1.07;;
9445;SDS011;4761;49.490;10.908;2023-02-01T14:32:15;2.90;;;1.30;;
9445;SDS011;4761;49.490;10.908;2023-02-01T14:37:22;2.43;;;1.30;;
9445;SDS011;4761;49.490;10.908;2023-02-01T14:39:55;1.83;;;1.10;;
9445;SDS011;4761;49.490;10.908;2023-02-01T14:42:38;2.17;;;1.07;;
9445;SDS011;4761;49.490;10.908;2023-02-01T14:55:35;4.83;;;1.77;;
9445;SDS011;4761;49.490;10.908;2023-02-01T15:01:01;5.77;;;1.50;;
9445;SDS011;4761;49.490;10.908;2023-02-01T15:08:58;3.60;;;1.57;;
9445;SDS011;4761;49.490;10.908;2023-02-01T15:11:26;5.73;;;1.80;;
9445;SDS011;4761;49.490;10.908;2023-02-01T15:13:52;4.40;;;1.73;;
9445;SDS011;4761;49.490;10.908;2023-02-01T15:16:21;4.93;;;1.63;;
9445;SDS011;4761;49.490;10.908;2023-02-01T15:18:48;7.20;;;2.00;;
9445;SDS011;4761;49.490;10.908;2023-02-01T15:21:15;4.50;;;1.53;;
9445;SDS011;4761;49.490;10.908;2023-02-01T15:23:46;4.23;;;1.50;;
9445;SDS011;4761;49.490;10.908;2023-02-01T15:26:29;5.10;;;1.80;;
9445;SDS011;4761;49.490;10.908;2023-02-01T15:28:59;4.33;;;1.60;;
9445;SDS011;4761;49.490;10.908;2023-02-01T15:31:36;3.67;;;1.50;;
9445;SDS011;4761;49.490;10.908;2023-02-01T15:34:05;4.33;;;1.80;;
9445;SDS011;4761;49.490;10.908;2023-02-01T15:36:31;4.07;;;1.87;;
9445;SDS011;4761;49.490;10.908;2023-02-01T15:39:11;4.63;;;1.60;;
9445;SDS011;4761;49.490;10.908;2023-02-01T15:41:37;3.00;;;1.67;;
9445;SDS011;4761;49.490;10.908;2023-02-01T15:44:05;3.70;;;1.60;;
9445;SDS011;4761;49.490;10.908;2023-02-01T15:46:42;2.90;;;1.80;;
9445;SDS011;4761;49.490;10.908;2023-02-01T15:49:19;4.70;;;1.97;;
9445;SDS011;4761;49.490;10.908;2023-02-01T15:51:51;3.93;;;1.77;;
9445;SDS011;4761;49.490;10.908;2023-02-01T15:54:28;3.07;;;1.40;;
9445;SDS011;4761;49.490;10.908;2023-02-01T15:57:01;3.77;;;1.60;;
9445;SDS011;4761;49.490;10.908;2023-02-01T15:59:29;3.70;;;1.90;;
9445;SDS011;4761;49.490;10.908;2023-02-01T16:01:59;2.87;;;1.60;;
9445;SDS011;4761;49.490;10.908;2023-02-01T16:04:25;5.93;;;1.90;;
9445;SDS011;4761;49.490;10.908;2023-02-01T16:07:01;4.13;;;2.00;;
9445;SDS011;4761;49.490;10.908;2023-02-01T16:09:40;4.37;;;1.57;;
9445;SDS011;4761;49.490;10.908;2023-02-01T16:12:23;6.03;;;2.10;;
9445;SDS011;4761;49.490;10.908;2023-02-01T16:15:00;3.83;;;1.90;;
9445;SDS011;4761;49.490;10.908;2023-02-01T16:17:25;3.93;;;1.53;;
9445;SDS011;4761;49.490;10.908;2023-02-01T16:19:51;5.27;;;1.77;;
9445;SDS011;4761;49.490;10.908;2023-02-01T16:22:17;3.93;;;2.07;;
9445;SDS011;4761;49.490;10.908;2023-02-01T16:24:42;4.87;;;2.07;;
9445;SDS011;4761;49.490;10.908;2023-02-01T16:27:08;3.33;;;1.93;;
9445;SDS011;4761;49.490;10.908;2023-02-01T16:29:33;3.33;;;1.60;;
9445;SDS011;4761;49.490;10.908;2023-02-01T16:31:59;4.53;;;2.33;;
9445;SDS011;4761;49.490;10.908;2023-02-01T16:34:25;5.27;;;2.37;;
9445;SDS011;4761;49.490;10.908;2023-02-01T16:36:51;2.87;;;1.60;;
9445;SDS011;4761;49.490;10.908;2023-02-01T16:39:17;4.20;;;2.00;;
9445;SDS011;4761;49.490;10.908;2023-02-01T16:41:43;4.00;;;1.80;;
9445;SDS011;4761;49.490;10.908;2023-02-01T16:44:10;3.87;;;1.83;;
9445;SDS011;4761;49.490;10.908;2023-02-01T16:46:38;4.33;;;1.80;;
9445;SDS011;4761;49.490;10.908;2023-02-01T16:49:05;5.10;;;2.20;;
9445;SDS011;4761;49.490;10.908;2023-02-01T16:51:40;4.83;;;2.07;;
9445;SDS011;4761;49.490;10.908;2023-02-01T16:54:07;5.90;;;2.03;;
9445;SDS011;4761;49.490;10.908;2023-02-01T16:56:33;3.67;;;1.90;;
9445;SDS011;4761;49.490;10.908;2023-02-01T16:59:00;4.40;;;1.90;;
9445;SDS011;4761;49.490;10.908;2023-02-01T17:01:26;4.97;;;1.97;;
9445;SDS011;4761;49.490;10.908;2023-02-01T17:03:52;4.20;;;2.07;;
9445;SDS011;4761;49.490;10.908;2023-02-01T17:06:19;4.90;;;1.90;;
9445;SDS011;4761;49.490;10.908;2023-02-01T17:08:49;4.40;;;1.80;;
9445;SDS011;4761;49.490;10.908;2023-02-01T17:11:17;3.33;;;1.90;;
9445;SDS011;4761;49.490;10.908;2023-02-01T17:13:43;5.43;;;2.27;;
9445;SDS011;4761;49.490;10.908;2023-02-01T17:16:15;5.20;;;2.10;;
9445;SDS011;4761;49.490;10.908;2023-02-01T17:18:53;3.97;;;2.00;;
9445;SDS011;4761;49.490;10.908;2023-02-01T17:21:43;4.20;;;1.90;;
9445;SDS011;4761;49.490;10.908;2023-02-01T17:24:12;3.10;;;1.80;;
9445;SDS011;4761;49.490;10.908;2023-02-01T17:26:39;4.70;;;2.40;;
9445;SDS011;4761;49.490;10.908;2023-02-01T17:29:05;6.10;;;2.00;;
9445;SDS011;4761;49.490;10.908;2023-02-01T17:31:30;4.30;;;2.17;;
9445;SDS011;4761;49.490;10.908;2023-02-01T17:34:00;3.93;;;1.77;;
9445;SDS011;4761;49.490;10.908;2023-02-01T17:36:26;4.30;;;2.33;;
9445;SDS011;4761;49.490;10.908;2023-02-01T17:38:51;5.67;;;2.03;;
9445;SDS011;4761;49.490;10.908;2023-02-01T17:41:17;4.97;;;2.10;;
9445;SDS011;4761;49.490;10.908;2023-02-01T17:43:42;3.77;;;2.00;;